Colorado City, Arizona
Current Conditions -  °F | °C
As of 5:15 AM on Sunday 23 Nov 2014 (Local Time) from KAZC Reporting Station
Clear Clear  
Wind Chill: 34°   Ceiling: Unl
Heat Index: 41°   Visibility: 10mi
Dew Point: 25°   Wind: 13mph
Humidity: 53%   Direction: 310°NW
Pressure: 30.1"   Gusts: 20mph
Location:  36.99°N, 112.98°W
Report Text: KAZC 231215Z AUTO 31011G17KT 10SM CLR 05/M04 A3010 RMK AO2 T00501040
Loading
Personal Weather Stations






























Interactive Weather Map New forecast layout! Learn more

10-Day Weather Forecast

Advertisements
Track Severe Weather on mobile